createdAt,value
2022-10-11T00:01:34.546Z,65.66
2022-10-11T00:04:04.008Z,66.88
2022-10-11T00:06:33.064Z,66.81
2022-10-11T00:09:03.461Z,67.09
2022-10-11T00:11:32.970Z,67.80
2022-10-11T00:14:01.962Z,67.64
2022-10-11T00:16:30.986Z,68.45
2022-10-11T00:19:00.347Z,68.71
2022-10-11T00:21:30.690Z,68.15
2022-10-11T00:23:59.804Z,69.08
2022-10-11T00:26:30.557Z,69.07
2022-10-11T00:28:59.538Z,68.76
2022-10-11T00:31:32.084Z,70.00
2022-10-11T00:34:04.726Z,71.21
2022-10-11T00:36:33.751Z,70.37
2022-10-11T00:39:02.739Z,70.25
2022-10-11T00:41:33.816Z,70.22
2022-10-11T00:44:14.087Z,70.27
2022-10-11T00:46:46.008Z,70.39
2022-10-11T00:49:25.342Z,70.62
2022-10-11T00:51:59.558Z,71.08
2022-10-11T00:54:33.293Z,72.53
2022-10-11T00:57:06.931Z,72.47
2022-10-11T00:59:42.750Z,71.21
2022-10-11T01:02:14.099Z,72.27
2022-10-11T01:04:43.815Z,71.90
2022-10-11T01:07:13.472Z,71.75
2022-10-11T01:09:42.616Z,72.00
2022-10-11T01:12:19.955Z,71.27
2022-10-11T01:14:59.832Z,71.95
2022-10-11T01:17:36.813Z,71.44
2022-10-11T01:20:39.866Z,71.79
2022-10-11T01:23:45.179Z,71.47
2022-10-11T01:26:56.165Z,71.99
2022-10-11T01:29:42.966Z,72.21
2022-10-11T01:32:18.433Z,72.80
2022-10-11T01:34:56.996Z,72.84
2022-10-11T01:37:32.454Z,72.34
2022-10-11T01:40:08.822Z,72.29
2022-10-11T01:42:40.080Z,72.39
2022-10-11T01:45:15.504Z,72.14
2022-10-11T01:47:46.818Z,72.31
2022-10-11T01:50:40.405Z,72.69
2022-10-11T01:53:51.390Z,73.30
2022-10-11T01:56:30.947Z,73.72
2022-10-11T01:59:13.529Z,74.06
2022-10-11T02:01:54.929Z,73.44
2022-10-11T02:04:31.759Z,72.93
2022-10-11T02:07:06.779Z,74.34
2022-10-11T02:09:43.678Z,73.71
2022-10-11T02:12:18.524Z,73.44
2022-10-11T02:14:52.078Z,72.52
2022-10-11T02:17:24.493Z,72.03
2022-10-11T02:19:58.110Z,72.74
2022-10-11T02:22:31.442Z,72.43
2022-10-11T02:25:04.105Z,72.08
2022-10-11T02:27:39.039Z,72.09
2022-10-11T02:35:25.949Z,73.84
2022-10-11T02:38:00.179Z,73.23
2022-10-11T02:40:33.551Z,74.30
2022-10-11T02:43:08.796Z,74.69
2022-10-11T02:45:40.762Z,74.05
2022-10-11T02:48:12.619Z,73.05
2022-10-11T02:50:44.578Z,74.46
2022-10-11T02:53:14.001Z,74.77
2022-10-11T02:55:43.060Z,74.73
2022-10-11T02:58:12.059Z,74.52
2022-10-11T03:00:41.493Z,75.91
2022-10-11T03:03:10.802Z,76.28
2022-10-11T03:05:41.631Z,76.01
2022-10-11T03:08:14.635Z,75.76
2022-10-11T03:10:44.228Z,76.55
2022-10-11T03:13:17.855Z,76.46
2022-10-11T03:16:01.960Z,77.27
2022-10-11T03:18:32.590Z,77.65
2022-10-11T03:21:01.761Z,77.09
2022-10-11T03:23:32.213Z,76.47
2022-10-11T03:26:01.571Z,76.23
2022-10-11T03:28:30.937Z,77.65
2022-10-11T03:30:59.967Z,76.88
2022-10-11T03:33:29.236Z,77.57
2022-10-11T03:35:58.634Z,76.73
2022-10-11T03:38:28.319Z,76.43
2022-10-11T03:40:59.019Z,75.75
2022-10-11T03:43:28.002Z,76.04
2022-10-11T03:45:57.170Z,76.29
2022-10-11T03:48:26.655Z,75.99
2022-10-11T03:50:55.761Z,76.33
2022-10-11T03:53:25.024Z,76.29
2022-10-11T03:55:55.228Z,75.68
2022-10-11T03:58:26.172Z,75.65
2022-10-11T04:00:56.012Z,76.11
2022-10-11T04:03:25.421Z,76.03
2022-10-11T04:05:54.416Z,74.90
2022-10-11T04:08:23.815Z,75.40
2022-10-11T04:10:52.779Z,74.85
2022-10-11T04:13:21.809Z,74.62
2022-10-11T04:15:52.459Z,73.64
2022-10-11T04:18:21.497Z,73.52
2022-10-11T04:20:50.563Z,74.07
2022-10-11T04:23:19.732Z,74.39
2022-10-11T04:25:48.840Z,74.51
2022-10-11T04:28:17.906Z,73.43
2022-10-11T04:30:47.830Z,74.26
2022-10-11T04:33:18.293Z,74.60
2022-10-11T04:35:47.449Z,74.09
2022-10-11T04:38:16.662Z,74.32
2022-10-11T04:40:45.696Z,73.02
2022-10-11T04:43:16.717Z,72.79
2022-10-11T04:45:46.035Z,72.88
2022-10-11T04:48:15.491Z,72.67
2022-10-11T04:50:46.858Z,72.09
2022-10-11T04:53:18.890Z,72.89
2022-10-11T04:55:58.839Z,72.50
2022-10-11T04:58:28.391Z,73.47
2022-10-11T05:00:57.744Z,73.36
2022-10-11T05:03:27.453Z,72.64
2022-10-11T05:06:00.976Z,72.80
2022-10-11T05:08:33.965Z,71.76
2022-10-11T05:11:05.796Z,72.25
2022-10-11T05:13:36.830Z,72.38
2022-10-11T05:16:10.574Z,72.28
2022-10-11T05:18:40.492Z,72.71
2022-10-11T05:21:16.067Z,71.77
2022-10-11T05:23:45.380Z,72.12
2022-10-11T05:26:14.980Z,73.02
2022-10-11T05:28:44.459Z,72.93
2022-10-11T05:31:14.388Z,72.93
2022-10-11T05:33:44.142Z,72.61
2022-10-11T05:36:15.222Z,73.31
2022-10-11T05:38:44.281Z,73.27
2022-10-11T05:41:15.586Z,73.09
2022-10-11T05:43:46.004Z,72.37
2022-10-11T05:46:15.071Z,72.35
2022-10-11T05:48:44.196Z,72.26
2022-10-11T05:51:14.817Z,71.96
2022-10-11T05:53:43.951Z,71.43
2022-10-11T05:56:21.605Z,71.37
2022-10-11T05:58:51.483Z,71.76
2022-10-11T06:01:22.353Z,71.35
2022-10-11T06:03:51.825Z,70.52
2022-10-11T06:06:22.300Z,70.88
2022-10-11T06:08:51.944Z,70.70
2022-10-11T06:11:22.872Z,71.08
2022-10-11T06:13:54.378Z,71.00
2022-10-11T06:16:23.645Z,69.58
2022-10-11T06:18:55.251Z,70.14
2022-10-11T06:21:26.355Z,69.79
2022-10-11T06:24:01.059Z,70.18
2022-10-11T06:26:31.315Z,70.12
2022-10-11T06:29:00.656Z,69.79
2022-10-11T06:31:29.997Z,69.26
2022-10-11T06:34:00.551Z,68.31
2022-10-11T06:36:31.063Z,69.01
2022-10-11T06:39:01.570Z,69.22
2022-10-11T06:41:32.030Z,68.53
2022-10-11T06:44:01.427Z,68.85
2022-10-11T06:46:32.414Z,68.50
2022-10-11T06:49:01.541Z,68.82
2022-10-11T06:51:53.185Z,68.31
2022-10-11T06:54:22.283Z,67.40
2022-10-11T06:56:51.481Z,67.69
2022-10-11T06:59:20.757Z,66.89
2022-10-11T07:01:50.117Z,66.58
2022-10-11T07:04:19.391Z,67.35
2022-10-11T07:06:48.445Z,67.32
2022-10-11T07:09:18.886Z,66.37
2022-10-11T07:11:48.982Z,66.58
2022-10-11T07:14:18.044Z,66.73
2022-10-11T07:16:47.111Z,66.21
2022-10-11T07:19:16.618Z,65.87
2022-10-11T07:21:45.721Z,65.59
2022-10-11T07:24:14.794Z,64.67
2022-10-11T07:26:45.505Z,64.33
2022-10-11T07:29:14.832Z,64.47
2022-10-11T07:31:44.561Z,63.81
2022-10-11T07:34:14.056Z,62.72
2022-10-11T07:36:43.367Z,63.63
2022-10-11T07:39:12.566Z,63.10
2022-10-11T07:41:45.954Z,62.17
2022-10-11T07:44:16.753Z,63.15
2022-10-11T07:46:45.963Z,61.91
2022-10-11T07:49:14.943Z,61.95
2022-10-11T07:51:44.263Z,61.83
2022-10-11T07:54:13.577Z,61.24
2022-10-11T07:56:42.612Z,60.91
2022-10-11T07:59:12.734Z,60.79
2022-10-11T08:01:43.328Z,60.74
2022-10-11T08:04:12.357Z,59.68
2022-10-11T08:06:42.405Z,59.15
2022-10-11T08:09:12.806Z,59.24
2022-10-11T08:11:41.972Z,59.48
2022-10-11T08:14:12.451Z,58.79
2022-10-11T08:16:43.217Z,58.33
2022-10-11T08:19:12.591Z,57.22
2022-10-11T08:21:41.833Z,57.64
2022-10-11T08:24:13.848Z,56.85
2022-10-11T08:26:43.250Z,57.32
2022-10-11T08:29:13.398Z,57.89
2022-10-11T08:31:44.633Z,57.43
2022-10-11T08:34:14.020Z,56.68
2022-10-11T08:36:43.096Z,55.27
2022-10-11T08:39:12.411Z,55.72
2022-10-11T08:41:46.222Z,54.73
2022-10-11T08:44:27.873Z,53.14
2022-10-11T08:47:04.051Z,54.72
2022-10-11T08:49:35.446Z,55.43
2022-10-11T08:52:07.631Z,57.19
2022-10-11T08:54:45.602Z,56.37
2022-10-11T08:57:19.016Z,56.03
2022-10-11T08:59:52.116Z,55.52
2022-10-11T09:02:49.245Z,55.24
2022-10-11T09:05:20.727Z,55.28
2022-10-11T09:07:58.754Z,54.56
2022-10-11T09:10:55.186Z,53.94
2022-10-11T09:13:43.647Z,54.22
2022-10-11T09:16:22.801Z,52.54
2022-10-11T09:19:20.095Z,51.64
2022-10-11T09:22:00.720Z,50.81
2022-10-11T09:24:40.613Z,49.86
2022-10-11T09:27:25.892Z,49.99
2022-10-11T09:30:12.687Z,50.89
2022-10-11T09:32:45.433Z,50.40
2022-10-11T09:35:18.945Z,48.48
2022-10-11T09:37:57.072Z,48.44
2022-10-11T09:40:38.730Z,49.08
2022-10-11T09:43:09.927Z,47.65
2022-10-11T09:45:49.190Z,47.95
2022-10-11T09:48:21.720Z,48.07
2022-10-11T09:50:53.475Z,47.64
2022-10-11T09:53:42.608Z,48.10
2022-10-11T09:56:13.776Z,47.13
2022-10-11T09:58:42.922Z,46.31
2022-10-11T10:01:14.506Z,45.06
2022-10-11T10:03:45.546Z,43.90
2022-10-11T10:06:17.280Z,41.88
2022-10-11T10:08:47.685Z,41.51
2022-10-11T10:11:19.577Z,39.40
2022-10-11T10:13:51.323Z,41.62
2022-10-11T10:16:24.164Z,43.44
2022-10-11T10:18:55.791Z,42.96
2022-10-11T10:21:30.962Z,37.81
2022-10-11T10:24:04.545Z,36.49
2022-10-11T10:26:35.334Z,38.77
2022-10-11T10:29:18.640Z,42.99
2022-10-11T10:32:13.963Z,43.93
2022-10-11T10:34:56.460Z,44.13
2022-10-11T10:37:30.423Z,43.72
2022-10-11T10:40:06.990Z,44.01
2022-10-11T10:42:38.140Z,43.22
2022-10-11T10:45:13.115Z,44.12
2022-10-11T10:48:11.861Z,43.10
2022-10-11T10:50:51.399Z,44.42
2022-10-11T10:53:27.436Z,44.82
2022-10-11T10:56:07.379Z,45.18
2022-10-11T10:58:56.765Z,45.71
2022-10-11T11:01:30.318Z,36.23
2022-10-11T11:04:08.980Z,28.38
2022-10-11T11:06:47.680Z,24.08
2022-10-11T11:09:30.926Z,29.76
2022-10-11T11:12:12.132Z,34.42
2022-10-11T11:14:52.068Z,39.42
2022-10-11T11:17:33.730Z,42.05
2022-10-11T11:20:24.957Z,42.17
2022-10-11T11:23:00.742Z,42.98
2022-10-11T11:25:44.980Z,40.58
2022-10-11T11:28:32.486Z,42.47
2022-10-11T11:31:12.469Z,44.60
2022-10-11T11:33:51.281Z,45.33
2022-10-11T11:36:28.961Z,45.50
2022-10-11T11:39:02.570Z,35.73
2022-10-11T11:41:39.400Z,31.08
2022-10-11T11:44:16.725Z,25.81
2022-10-11T11:46:54.410Z,27.83
2022-10-11T11:49:32.550Z,25.88
2022-10-11T11:52:02.871Z,24.09
2022-10-11T11:54:45.877Z,25.84
2022-10-11T11:57:26.587Z,26.69
2022-10-11T12:00:04.878Z,22.79
2022-10-11T12:02:50.975Z,30.46
2022-10-11T12:05:23.022Z,34.15
2022-10-11T12:07:57.684Z,38.14
2022-10-11T12:10:35.069Z,32.26
2022-10-11T12:13:32.135Z,26.62
2022-10-11T12:16:10.976Z,24.83
2022-10-11T12:18:52.953Z,21.36
2022-10-11T12:21:31.964Z,22.69
2022-10-11T12:24:10.410Z,22.63
2022-10-11T12:26:42.436Z,28.64
2022-10-11T12:29:49.041Z,32.84
2022-10-11T12:32:52.891Z,33.96
2022-10-11T12:36:04.170Z,32.48
2022-10-11T12:38:40.067Z,27.16
2022-10-11T12:41:38.856Z,29.43
2022-10-11T12:44:23.547Z,31.24
2022-10-11T12:47:13.299Z,31.72
2022-10-11T12:49:58.128Z,27.78
2022-10-11T12:52:37.779Z,24.95
2022-10-11T12:55:31.254Z,27.20
2022-10-11T12:58:28.822Z,32.91
2022-10-11T13:01:18.763Z,35.26
2022-10-11T13:03:53.227Z,38.04
2022-10-11T13:06:25.308Z,41.75
2022-10-11T13:09:00.626Z,42.75
2022-10-11T13:11:34.251Z,43.42
2022-10-11T13:14:11.810Z,47.40
2022-10-11T13:16:52.777Z,51.15
2022-10-11T13:19:24.492Z,53.37
2022-10-11T13:21:56.854Z,51.86
2022-10-11T13:24:29.507Z,46.23
2022-10-11T13:26:59.143Z,43.63
2022-10-11T13:29:34.550Z,42.90
2022-10-11T13:32:06.200Z,39.83
2022-10-11T13:34:38.866Z,36.42
2022-10-11T13:37:08.568Z,35.65
2022-10-11T13:39:40.324Z,33.04
2022-10-11T13:42:12.947Z,32.90
2022-10-11T13:44:44.280Z,32.48
2022-10-11T13:47:15.363Z,29.89
2022-10-11T13:49:48.319Z,33.67
2022-10-11T13:52:24.145Z,32.20
2022-10-11T13:55:14.992Z,33.02
2022-10-11T13:57:47.907Z,40.41
2022-10-11T14:00:35.237Z,41.12
2022-10-11T14:03:08.865Z,41.85
2022-10-11T14:05:41.441Z,43.34
2022-10-11T14:08:26.119Z,43.74
2022-10-11T14:10:59.344Z,43.93
2022-10-11T14:13:32.275Z,43.84
2022-10-11T14:16:05.328Z,46.81
2022-10-11T14:18:41.381Z,49.65
2022-10-11T14:21:28.838Z,52.46
2022-10-11T14:23:59.965Z,54.13
2022-10-11T14:26:34.801Z,55.64
2022-10-11T14:29:07.077Z,58.54
2022-10-11T14:31:42.004Z,60.14
2022-10-11T14:34:17.871Z,61.72
2022-10-11T14:36:47.117Z,62.77
2022-10-11T14:39:18.588Z,62.60
2022-10-11T14:41:49.722Z,63.10
2022-10-11T14:44:20.079Z,64.40
2022-10-11T14:46:54.225Z,64.22
2022-10-11T14:49:26.248Z,65.24
2022-10-11T14:51:57.089Z,64.87
2022-10-11T14:54:28.452Z,64.65
2022-10-11T14:57:01.211Z,64.99
2022-10-11T14:59:34.832Z,64.74
2022-10-11T15:02:04.032Z,64.39
2022-10-11T15:04:33.917Z,63.45
2022-10-11T15:07:03.643Z,63.54
2022-10-11T15:09:33.293Z,63.98
2022-10-11T15:12:03.687Z,63.99
2022-10-11T15:14:32.789Z,65.92
2022-10-11T15:17:02.158Z,66.27
2022-10-11T15:19:31.281Z,65.62
2022-10-11T15:22:02.384Z,66.19
2022-10-11T15:24:31.656Z,65.23
2022-10-11T15:27:02.110Z,65.31
2022-10-11T15:29:31.464Z,65.74
2022-10-11T15:32:00.755Z,65.40
2022-10-11T15:34:29.748Z,66.51
2022-10-11T15:36:59.145Z,66.37
2022-10-11T15:39:32.582Z,67.03
2022-10-11T15:42:03.185Z,66.83
2022-10-11T15:44:32.396Z,67.10
2022-10-11T15:47:01.407Z,66.35
2022-10-11T15:49:30.695Z,66.98
2022-10-11T15:51:59.630Z,67.15
2022-10-11T15:54:28.600Z,67.24
2022-10-11T15:56:58.820Z,68.04
2022-10-11T15:59:29.330Z,68.44
2022-10-11T16:01:59.294Z,69.06
2022-10-11T16:04:28.498Z,69.70
2022-10-11T16:06:57.574Z,69.21
2022-10-11T16:09:26.809Z,70.05
2022-10-11T16:11:55.924Z,69.66
2022-10-11T16:14:25.415Z,69.26
2022-10-11T16:16:55.965Z,69.75
2022-10-11T16:19:25.226Z,70.20
2022-10-11T16:21:54.159Z,70.11
2022-10-11T16:24:23.482Z,70.04
2022-10-11T16:26:52.519Z,71.21
2022-10-11T16:29:22.128Z,70.19
2022-10-11T16:31:51.119Z,71.82
2022-10-11T16:34:21.714Z,71.52
2022-10-11T16:36:50.747Z,72.02
2022-10-11T16:39:20.853Z,72.21
2022-10-11T16:41:49.952Z,71.36
2022-10-11T16:44:21.102Z,71.47
2022-10-11T16:46:50.814Z,71.94
2022-10-11T16:49:23.558Z,71.41
2022-10-11T16:51:54.682Z,72.83
2022-10-11T16:54:24.126Z,72.34
2022-10-11T16:56:53.475Z,73.69
2022-10-11T16:59:22.837Z,72.88
2022-10-11T17:01:51.952Z,72.55
2022-10-11T17:04:22.826Z,73.36
2022-10-11T17:06:54.239Z,74.41
2022-10-11T17:09:23.507Z,72.42
2022-10-11T17:11:52.899Z,74.49
2022-10-11T17:14:22.793Z,74.66
2022-10-11T17:16:51.964Z,76.60
2022-10-11T17:19:22.534Z,76.48
2022-10-11T17:21:51.569Z,76.34
2022-10-11T17:24:20.777Z,78.06
2022-10-11T17:26:50.010Z,77.21
2022-10-11T17:29:21.271Z,77.07
2022-10-11T17:31:50.303Z,77.17
2022-10-11T17:34:19.549Z,76.74
2022-10-11T17:36:50.528Z,75.51
2022-10-11T17:39:21.634Z,75.84
2022-10-11T17:41:51.597Z,76.82
2022-10-11T17:44:21.823Z,75.92
2022-10-11T17:46:51.809Z,76.75
2022-10-11T17:49:20.917Z,75.78
2022-10-11T17:51:51.555Z,75.85
2022-10-11T17:54:20.558Z,75.58
2022-10-11T17:56:50.366Z,75.15
2022-10-11T17:59:21.849Z,76.50
2022-10-11T18:01:51.627Z,75.88
2022-10-11T18:04:23.307Z,76.80
2022-10-11T18:06:54.771Z,75.82
2022-10-11T18:09:24.932Z,76.73
2022-10-11T18:11:54.048Z,77.61
2022-10-11T18:14:23.341Z,77.37
2022-10-11T18:16:52.459Z,77.64
2022-10-11T18:19:21.774Z,76.85
2022-10-11T18:21:52.528Z,77.07
2022-10-11T18:24:21.551Z,76.53
2022-10-11T18:26:50.811Z,76.87
2022-10-11T18:29:19.882Z,76.03
2022-10-11T18:31:49.220Z,76.47
2022-10-11T18:34:18.585Z,76.14
2022-10-11T18:36:49.346Z,75.50
2022-10-11T18:39:21.793Z,76.10
2022-10-11T18:41:51.067Z,76.12
2022-10-11T18:44:20.190Z,75.89
2022-10-11T18:46:50.316Z,75.80
2022-10-11T18:49:19.778Z,74.85
2022-10-11T18:51:49.135Z,76.05
2022-10-11T18:54:21.249Z,75.55
2022-10-11T18:56:50.964Z,75.44
2022-10-11T18:59:20.684Z,74.37
2022-10-11T19:01:52.313Z,75.17
2022-10-11T19:04:21.955Z,76.15
2022-10-11T19:06:53.402Z,76.25
2022-10-11T19:09:26.495Z,76.98
2022-10-11T19:11:57.541Z,77.57
2022-10-11T19:14:28.488Z,77.29
2022-10-11T19:16:58.466Z,75.95
2022-10-11T19:19:29.618Z,76.42
2022-10-11T19:21:59.032Z,77.05
2022-10-11T19:24:32.463Z,75.93
2022-10-11T19:27:03.069Z,75.11
2022-10-11T19:29:34.447Z,76.04
2022-10-11T19:32:04.224Z,75.48
2022-10-11T19:34:33.958Z,76.09
2022-10-11T19:37:04.126Z,77.11
2022-10-11T19:39:34.855Z,76.78
2022-10-11T19:42:04.910Z,77.08
2022-10-11T19:44:38.673Z,76.93
2022-10-11T19:47:10.143Z,76.50
2022-10-11T19:49:39.423Z,76.07
2022-10-11T19:52:09.580Z,77.06
2022-10-11T19:54:40.381Z,76.31
2022-10-11T19:57:09.877Z,77.35
2022-10-11T19:59:39.139Z,75.90
2022-10-11T20:02:08.376Z,76.12
2022-10-11T20:04:54.029Z,76.07
2022-10-11T20:07:23.252Z,75.39
2022-10-11T20:09:54.151Z,76.19
2022-10-11T20:12:23.176Z,75.86
2022-10-11T20:14:52.408Z,76.39
2022-10-11T20:17:21.415Z,77.89
2022-10-11T20:19:50.906Z,77.53
2022-10-11T20:22:19.987Z,77.79
2022-10-11T20:24:49.136Z,77.46
2022-10-11T20:27:19.617Z,76.97
2022-10-11T20:29:50.148Z,76.91
2022-10-11T20:32:19.111Z,75.02
2022-10-11T20:34:48.358Z,75.15
2022-10-11T20:37:17.477Z,75.08
2022-10-11T20:39:46.738Z,75.29
2022-10-11T20:42:15.721Z,74.56
2022-10-11T20:44:48.202Z,76.11
2022-10-11T20:47:17.231Z,75.44
2022-10-11T20:49:46.602Z,75.34
2022-10-11T20:52:15.982Z,75.79
2022-10-11T20:54:45.180Z,74.72
2022-10-11T20:57:14.473Z,75.47
2022-10-11T20:59:43.459Z,75.21
2022-10-11T21:02:18.097Z,75.36
2022-10-11T21:04:48.239Z,76.79
2022-10-11T21:07:17.339Z,77.34
2022-10-11T21:09:46.507Z,76.00
2022-10-11T21:12:15.488Z,77.34
2022-10-11T21:14:44.916Z,77.53
2022-10-11T21:17:15.359Z,75.78
2022-10-11T21:19:44.558Z,76.25
2022-10-11T21:22:13.751Z,78.71
2022-10-11T21:24:42.715Z,77.73
2022-10-11T21:27:11.933Z,78.28
2022-10-11T21:29:41.092Z,77.70
2022-10-11T21:32:14.277Z,77.68
2022-10-11T21:34:45.389Z,77.62
2022-10-11T21:37:14.502Z,77.14
2022-10-11T21:39:43.514Z,76.72
2022-10-11T21:42:12.786Z,76.92
2022-10-11T21:44:43.712Z,77.04
2022-10-11T21:47:12.945Z,76.01
2022-10-11T21:49:42.149Z,77.22
2022-10-11T21:52:12.717Z,78.79
2022-10-11T21:54:42.051Z,77.67
2022-10-11T21:57:11.108Z,77.94
2022-10-11T21:59:40.209Z,77.24
2022-10-11T22:02:09.728Z,77.03
2022-10-11T22:04:38.944Z,76.15
2022-10-11T22:07:08.128Z,76.19
2022-10-11T22:09:38.939Z,75.60
2022-10-11T22:12:08.511Z,75.12
2022-10-11T22:14:37.983Z,75.37
2022-10-11T22:17:07.260Z,75.50
2022-10-11T22:19:36.478Z,74.52
2022-10-11T22:22:06.069Z,75.15
2022-10-11T22:24:35.167Z,74.88
2022-10-11T22:27:05.797Z,74.26
2022-10-11T22:29:35.315Z,74.21
2022-10-11T22:32:05.247Z,74.19
2022-10-11T22:34:34.798Z,73.77
2022-10-11T22:37:04.420Z,73.43
2022-10-11T22:39:33.564Z,73.74
2022-10-11T22:42:04.129Z,74.08
2022-10-11T22:44:33.573Z,74.27
2022-10-11T22:47:02.902Z,74.27
2022-10-11T22:49:32.042Z,74.40
2022-10-11T22:52:01.354Z,74.96
2022-10-11T22:54:30.563Z,74.98
2022-10-11T22:56:59.744Z,74.67
2022-10-11T22:59:30.604Z,75.15
2022-10-11T23:01:59.848Z,74.87
2022-10-11T23:04:29.176Z,74.23
2022-10-11T23:07:01.281Z,74.13
2022-10-11T23:09:33.817Z,75.01
2022-10-11T23:12:02.924Z,75.69
2022-10-11T23:14:33.443Z,74.77
2022-10-11T23:17:02.736Z,74.74
2022-10-11T23:19:31.839Z,73.83
2022-10-11T23:22:01.029Z,73.70
2022-10-11T23:24:30.626Z,74.16
2022-10-11T23:26:59.721Z,74.68
2022-10-11T23:29:32.314Z,74.29
2022-10-11T23:32:01.629Z,74.57
2022-10-11T23:34:30.793Z,74.40
2022-10-11T23:37:00.118Z,74.47
2022-10-11T23:39:30.103Z,74.89
2022-10-11T23:41:59.339Z,75.07
2022-10-11T23:44:28.463Z,75.21
2022-10-11T23:46:59.236Z,74.97
2022-10-11T23:49:28.453Z,73.60
2022-10-11T23:51:57.648Z,74.34
2022-10-11T23:54:27.079Z,74.06
2022-10-11T23:56:56.323Z,74.50
2022-10-11T23:59:25.571Z,74.80
